Time;durP1;ratioP1;P1;durP2;ratioP2;P2;SDS_P1;SDS_P2;PMS_P1;PMS_P2;Temp;Humidity;BMP_temperature;BMP_pressure;BME280_temperature;BME280_humidity;BME280_pressure;Samples;Min_cycle;Max_cycle;Signal;HPM_P1;HPM_P2
2023/10/13 00:01:51;;;;;;;0.30;0.00;;;;;;;7.69;60.35;100484.06;5011770;28;20051;-73
2023/10/13 00:04:24;;;;;;;0.17;0.00;;;;;;;7.65;60.02;100484.06;5023095;28;20140;-73
2023/10/13 00:06:52;;;;;;;0.45;0.08;;;;;;;7.61;59.91;100472.00;5028585;28;20123;-74
2023/10/13 00:09:20;;;;;;;0.45;0.10;;;;;;;7.63;59.97;100474.59;5027649;28;20587;-73
2023/10/13 00:11:47;;;;;;;1.00;0.10;;;;;;;7.60;60.51;100475.47;5025222;28;20119;-73
2023/10/13 00:14:16;;;;;;;3.50;0.10;;;;;;;7.57;60.16;100467.72;5029315;28;20127;-74
2023/10/13 00:17:00;;;;;;;0.95;0.00;;;;;;;7.55;60.13;100466.88;5026389;28;20047;-74
2023/10/13 00:19:28;;;;;;;1.65;0.00;;;;;;;7.53;60.66;100468.63;5030554;28;20511;-73
2023/10/13 00:22:08;;;;;;;0.85;0.00;;;;;;;7.53;60.34;100472.97;5026808;28;20083;-73
2023/10/13 00:24:42;;;;;;;1.05;0.00;;;;;;;7.51;60.72;100466.91;5028265;28;20052;-73
2023/10/13 00:27:27;;;;;;;0.17;0.10;;;;;;;7.49;60.26;100471.28;5027524;28;20191;-73
2023/10/13 00:30:17;;;;;;;0.40;0.00;;;;;;;7.47;60.45;100471.28;5031996;28;20404;-81
2023/10/13 00:32:44;;;;;;;2.45;0.10;;;;;;;7.45;60.76;100473.03;5038568;28;20162;-80
2023/10/13 00:35:24;;;;;;;0.52;0.08;;;;;;;7.43;60.93;100472.22;5042327;28;20071;-80
2023/10/13 00:37:53;;;;;;;0.20;0.05;;;;;;;7.41;60.76;100480.00;5034152;28;20052;-81
2023/10/13 00:40:41;;;;;;;0.30;0.00;;;;;;;7.39;60.94;100473.94;5033578;28;20047;-75
2023/10/13 00:45:54;;;;;;;2.90;0.10;;;;;;;7.34;61.22;100465.38;5027620;28;20049;-75
2023/10/13 00:48:25;;;;;;;0.10;0.00;;;;;;;7.30;61.55;100466.25;5033971;28;20045;-76
2023/10/13 00:50:56;;;;;;;0.60;0.10;;;;;;;7.22;61.29;100461.13;5032978;28;20049;-75
2023/10/13 00:53:23;;;;;;;0.65;0.00;;;;;;;7.27;61.23;100461.09;5031420;28;20049;-75
2023/10/13 00:55:50;;;;;;;3.53;0.30;;;;;;;7.27;61.51;100466.28;5036860;28;20701;-75
2023/10/13 00:58:22;;;;;;;1.35;0.10;;;;;;;7.26;61.20;100474.09;5033413;28;20052;-76
2023/10/13 01:00:56;;;;;;;0.52;0.00;;;;;;;7.25;61.24;100474.97;5030672;28;20099;-76
2023/10/13 01:03:26;;;;;;;2.70;0.10;;;;;;;7.22;61.84;100481.91;5031464;28;20424;-76
2023/10/13 01:05:55;;;;;;;0.82;0.10;;;;;;;7.21;61.46;100476.75;5032515;28;20044;-75
2023/10/13 01:08:34;;;;;;;1.95;0.10;;;;;;;7.20;61.64;100490.63;5029103;28;20996;-75
2023/10/13 01:11:02;;;;;;;0.43;0.10;;;;;;;7.19;61.88;100491.47;5030842;28;20057;-75
2023/10/13 01:13:30;;;;;;;0.70;0.00;;;;;;;7.13;61.47;100492.38;5027137;28;20140;-76
2023/10/13 01:15:58;;;;;;;1.38;0.10;;;;;;;7.15;61.86;100502.78;5035319;28;20136;-75
2023/10/13 01:18:28;;;;;;;1.02;0.00;;;;;;;7.15;61.66;100515.78;5030195;28;20074;-75
2023/10/13 01:20:59;;;;;;;4.32;0.00;;;;;;;7.13;62.13;100504.53;5033892;28;20799;-77
2023/10/13 01:23:28;;;;;;;1.13;0.00;;;;;;;7.13;61.88;100509.72;5029957;28;20041;-75
2023/10/13 01:25:56;;;;;;;0.10;0.00;;;;;;;7.12;61.89;100508.00;5031035;28;20053;-75
2023/10/13 01:28:24;;;;;;;4.05;0.10;;;;;;;7.08;62.24;100512.34;5025813;28;20048;-75
2023/10/13 01:30:51;;;;;;;1.40;0.03;;;;;;;6.97;62.00;100489.09;5013715;28;20033;-76
2023/10/13 01:33:17;;;;;;;2.10;0.10;;;;;;;7.08;62.21;100511.50;5018579;28;20064;-75
2023/10/13 01:35:47;;;;;;;1.23;0.10;;;;;;;7.03;62.27;100508.94;5030885;28;20135;-75
2023/10/13 01:38:14;;;;;;;0.65;0.05;;;;;;;7.05;62.37;100516.72;5025901;28;20049;-76
2023/10/13 01:40:43;;;;;;;2.47;0.30;;;;;;;7.00;61.95;100524.53;5030096;28;20053;-76
2023/10/13 01:43:10;;;;;;;0.80;0.00;;;;;;;7.02;62.25;100527.13;5027992;28;20061;-76
2023/10/13 01:45:46;;;;;;;0.47;0.10;;;;;;;7.03;62.29;100526.25;5030892;28;20064;-76
2023/10/13 01:48:16;;;;;;;1.00;0.20;;;;;;;7.01;62.46;100525.41;5031881;28;20055;-80
2023/10/13 01:50:47;;;;;;;2.17;0.00;;;;;;;6.99;62.09;100522.81;5035766;28;20080;-80
2023/10/13 01:53:17;;;;;;;2.47;0.00;;;;;;;6.99;62.75;100523.66;5020543;28;20049;-80
2023/10/13 01:55:44;;;;;;;0.77;0.00;;;;;;;6.95;62.87;100519.38;5029689;28;20131;-80
2023/10/13 01:58:15;;;;;;;0.65;0.10;;;;;;;6.97;62.56;100525.44;5040588;28;20124;-80
2023/10/13 02:00:45;;;;;;;1.38;0.10;;;;;;;6.97;62.64;100519.34;5027492;28;20506;-80
2023/10/13 02:03:15;;;;;;;1.08;0.10;;;;;;;6.96;62.58;100517.66;5040417;28;20044;-81
2023/10/13 02:05:46;;;;;;;1.50;0.10;;;;;;;6.94;62.65;100520.28;5028351;28;20076;-81
2023/10/13 02:08:17;;;;;;;0.40;0.03;;;;;;;6.91;62.66;100515.06;5033339;28;20057;-80
2023/10/13 02:10:47;;;;;;;0.20;0.00;;;;;;;6.91;62.54;100512.47;5033031;28;20103;-79
2023/10/13 02:13:17;;;;;;;2.88;0.10;;;;;;;6.90;62.69;100521.16;5036451;28;20037;-80
2023/10/13 02:15:44;;;;;;;0.73;0.00;;;;;;;6.87;62.68;100523.78;5031934;28;20571;-80
2023/10/13 02:18:13;;;;;;;0.45;0.10;;;;;;;6.87;62.88;100526.38;5031100;28;20045;-80
2023/10/13 02:20:44;;;;;;;3.25;0.05;;;;;;;6.76;63.18;100504.81;5032404;28;20053;-80
2023/10/13 02:23:10;;;;;;;1.08;0.10;;;;;;;6.80;62.69;100516.03;5036487;28;20053;-79
2023/10/13 02:25:45;;;;;;;1.65;0.10;;;;;;;6.82;62.97;100530.72;5035021;28;20056;-80
2023/10/13 02:28:21;;;;;;;0.28;0.10;;;;;;;6.82;63.31;100528.13;5037453;28;20068;-81
2023/10/13 02:30:50;;;;;;;0.40;0.32;;;;;;;6.82;63.15;100540.25;5034989;28;20908;-80
2023/10/13 02:33:21;;;;;;;0.52;0.00;;;;;;;6.69;63.31;100526.50;5041152;28;20049;-80
2023/10/13 02:35:53;;;;;;;0.30;0.10;;;;;;;6.79;63.40;100535.94;5037653;28;20060;-79
2023/10/13 02:38:28;;;;;;;1.70;0.10;;;;;;;6.77;63.53;100535.09;5032927;28;20132;-80
2023/10/13 02:40:56;;;;;;;0.00;0.00;;;;;;;6.74;63.55;100524.72;5037381;28;20150;-80
2023/10/13 02:43:24;;;;;;;2.58;0.10;;;;;;;6.75;63.27;100529.06;5034927;28;20068;-79
2023/10/13 02:45:58;;;;;;;1.70;0.05;;;;;;;6.73;63.66;100534.25;5034986;28;20084;-80
2023/10/13 02:48:26;;;;;;;1.17;0.15;;;;;;;6.72;63.48;100531.69;5034417;28;20165;-73
2023/10/13 02:51:01;;;;;;;0.35;0.08;;;;;;;6.71;63.69;100533.38;5026260;28;20042;-74
2023/10/13 02:53:28;;;;;;;1.88;0.13;;;;;;;6.70;63.93;100533.41;5025787;28;20053;-73
2023/10/13 02:55:58;;;;;;;1.10;0.10;;;;;;;6.69;63.53;100535.16;5019205;28;20049;-74
2023/10/13 02:58:37;;;;;;;1.63;0.00;;;;;;;6.68;63.79;100533.41;5022170;28;20045;-73
2023/10/13 03:01:16;;;;;;;0.38;0.10;;;;;;;6.65;63.67;100533.44;5025004;28;20110;-73
2023/10/13 03:03:47;;;;;;;0.30;0.00;;;;;;;6.67;63.61;100546.41;5025351;28;20073;-73
2023/10/13 03:06:15;;;;;;;2.17;0.10;;;;;;;6.66;63.97;100555.06;5021405;28;20041;-73
2023/10/13 03:08:42;;;;;;;0.38;0.10;;;;;;;6.66;63.97;100552.47;5029455;28;20052;-73
2023/10/13 03:11:11;;;;;;;1.85;0.10;;;;;;;6.64;63.71;100554.22;5021325;28;20045;-73
2023/10/13 03:13:39;;;;;;;0.63;0.10;;;;;;;6.61;63.83;100541.25;5028926;28;20060;-73
2023/10/13 03:16:15;;;;;;;0.60;0.10;;;;;;;6.64;63.99;100541.25;5026596;28;20049;-73
2023/10/13 03:18:51;;;;;;;2.25;0.10;;;;;;;6.62;63.82;100540.38;5024946;28;20052;-74
2023/10/13 03:21:28;;;;;;;2.15;0.10;;;;;;;6.62;63.81;100545.56;5024118;28;20063;-73
2023/10/13 03:24:06;;;;;;;1.67;0.10;;;;;;;6.59;64.02;100540.41;5024241;28;20115;-73
2023/10/13 03:26:36;;;;;;;4.72;0.20;;;;;;;6.59;64.07;100550.78;5026193;28;20053;-74
2023/10/13 03:29:13;;;;;;;1.15;0.10;;;;;;;6.56;63.92;100537.81;5028544;28;20072;-74
2023/10/13 03:31:40;;;;;;;0.52;0.10;;;;;;;6.56;63.96;100545.63;5025039;28;20048;-75
2023/10/13 03:34:12;;;;;;;0.90;0.10;;;;;;;6.53;64.37;100542.16;5023031;28;20143;-75
2023/10/13 03:39:29;;;;;;;1.17;0.15;;;;;;;6.52;64.40;100558.59;5022391;28;20512;-73
2023/10/13 03:41:59;;;;;;;2.17;0.10;;;;;;;6.50;64.52;100547.38;5028964;28;20048;-73
2023/10/13 03:44:31;;;;;;;1.65;0.10;;;;;;;6.49;64.11;100553.44;5028983;28;20729;-73
2023/10/13 03:47:08;;;;;;;0.28;0.10;;;;;;;6.47;64.10;100542.19;5028561;28;20052;-73
2023/10/13 03:49:37;;;;;;;0.50;0.50;;;;;;;6.48;64.19;100543.91;5024152;28;20472;-74
2023/10/13 03:52:13;;;;;;;1.23;0.32;;;;;;;6.47;64.42;100542.19;5026327;28;20056;-73
2023/10/13 03:54:40;;;;;;;1.00;0.10;;;;;;;6.47;64.61;100549.13;5028616;28;20132;-74
2023/10/13 03:57:11;;;;;;;0.80;0.10;;;;;;;6.45;64.43;100556.91;5028715;28;20045;-73
2023/10/13 03:59:46;;;;;;;1.65;0.10;;;;;;;6.43;64.76;100543.09;5025324;28;20041;-75
2023/10/13 04:02:21;;;;;;;1.83;0.17;;;;;;;6.42;64.68;100551.72;5030827;28;20045;-75
2023/10/13 04:04:53;;;;;;;3.55;0.10;;;;;;;6.40;64.41;100565.56;5027398;28;20052;-76
2023/10/13 04:15:41;;;;;;;1.95;0.20;;;;;;;6.33;64.80;100541.41;5035867;28;20522;-76
2023/10/13 04:18:30;;;;;;;0.45;0.10;;;;;;;6.31;64.86;100554.38;5030148;28;20054;-76
2023/10/13 04:21:08;;;;;;;1.42;0.10;;;;;;;6.30;64.76;100567.38;5003750;28;20060;-76
2023/10/13 04:24:08;;;;;;;3.20;0.20;;;;;;;6.29;64.83;100578.63;5032490;28;20056;-76
2023/10/13 04:26:21;;;;;;;0.43;0.08;;;;;;;6.26;64.44;100588.97;5025688;28;20060;-76
2023/10/13 04:28:56;;;;;;;3.90;0.10;;;;;;;6.26;64.91;100578.59;5026662;28;21519;-76
2023/10/13 04:34:15;;;;;;;2.45;0.10;;;;;;;6.22;64.81;100574.31;5032306;28;20053;-79
2023/10/13 04:36:45;;;;;;;1.40;0.17;;;;;;;6.21;65.20;100576.03;5020222;28;21663;-79
2023/10/13 04:39:17;;;;;;;3.05;0.10;;;;;;;6.19;64.65;100574.31;5036473;28;20308;-80
2023/10/13 04:41:43;;;;;;;1.80;0.20;;;;;;;6.17;64.85;100576.91;5024628;28;20140;-80
2023/10/13 04:47:08;;;;;;;2.05;0.13;;;;;;;6.14;64.97;100571.72;5034372;28;20072;-80
2023/10/13 04:49:51;;;;;;;0.98;0.10;;;;;;;6.10;65.06;100559.66;5027796;28;20128;-81
2023/10/13 04:52:38;;;;;;;3.22;0.10;;;;;;;6.11;65.13;100565.72;5035051;28;20057;-79
2023/10/13 04:55:24;;;;;;;1.65;0.13;;;;;;;6.10;65.11;100574.38;5037821;28;20063;-80
2023/10/13 04:57:53;;;;;;;;;;;;;;;6.08;64.79;100574.34;5037854;28;20049;-80
2023/10/13 05:47:36;;;;;;;4.53;0.45;;;;;;;5.81;65.66;100541.59;5036566;28;20056;-77
2023/10/13 05:50:05;;;;;;;2.70;0.32;;;;;;;5.78;65.55;100545.03;5034011;28;20080;-76
2023/10/13 06:28:45;;;;;;;1.92;0.10;;;;;;;5.67;66.50;100574.44;5031754;28;20631;-74
2023/10/13 06:31:22;;;;;;;6.20;0.10;;;;;;;5.63;66.62;100574.44;5024087;28;20043;-75
2023/10/13 06:33:49;;;;;;;2.03;0.13;;;;;;;5.67;66.83;100577.03;5030507;28;20064;-75
2023/10/13 06:36:17;;;;;;;1.23;0.20;;;;;;;5.70;66.66;100574.44;5023749;28;20048;-76
2023/10/13 06:38:44;;;;;;;5.35;0.52;;;;;;;5.67;67.29;100580.47;5034382;28;20049;-72
2023/10/13 06:41:19;;;;;;;1.08;0.10;;;;;;;5.69;67.38;100573.53;5027486;28;20052;-73
2023/10/13 06:43:58;;;;;;;3.25;0.10;;;;;;;5.72;67.32;100576.16;5032485;28;20061;-72
2023/10/13 06:46:28;;;;;;;5.68;0.30;;;;;;;5.75;67.41;100583.94;5026611;28;20056;-73
2023/10/13 06:48:55;;;;;;;2.58;0.20;;;;;;;5.77;67.44;100581.31;5034097;28;20055;-78
2023/10/13 06:51:22;;;;;;;3.47;0.17;;;;;;;5.80;67.73;100589.94;5029338;28;20048;-79
2023/10/13 06:53:51;;;;;;;0.77;0.10;;;;;;;5.82;67.74;100595.13;5026733;28;20041;-78
2023/10/13 06:56:27;;;;;;;4.20;0.40;;;;;;;5.83;68.00;100587.38;5026350;28;20056;-77
2023/10/13 06:58:59;;;;;;;1.85;0.20;;;;;;;5.85;68.31;100584.75;5037653;28;20049;-78
2023/10/13 07:01:26;;;;;;;2.53;0.45;;;;;;;5.88;68.37;100582.16;5035248;28;20044;-78
2023/10/13 07:03:53;;;;;;;5.80;0.17;;;;;;;5.90;68.47;100580.44;5033712;28;20053;-78
2023/10/13 07:06:20;;;;;;;6.57;0.30;;;;;;;5.93;68.60;100583.03;5041039;28;20052;-78
2023/10/13 07:08:51;;;;;;;1.92;0.30;;;;;;;5.96;68.62;100582.19;5033437;28;20408;-78
2023/10/13 07:11:32;;;;;;;5.20;0.20;;;;;;;5.99;68.79;100583.03;5039445;28;20152;-78
2023/10/13 07:14:09;;;;;;;2.47;0.20;;;;;;;6.01;68.89;100575.25;5036811;28;20049;-77
2023/10/13 07:16:37;;;;;;;4.47;0.30;;;;;;;6.03;69.29;100568.31;5038162;28;20045;-78
2023/10/13 07:19:05;;;;;;;5.35;0.32;;;;;;;6.12;69.57;100577.78;5036404;28;20083;-79
2023/10/13 07:21:34;;;;;;;1.85;0.20;;;;;;;6.18;69.35;100585.56;5034643;28;20053;-78
2023/10/13 07:24:08;;;;;;;2.65;0.40;;;;;;;6.21;69.98;100578.63;5036950;28;20049;-78
2023/10/13 07:26:42;;;;;;;7.68;0.60;;;;;;;6.31;70.16;100579.44;5028501;28;20045;-78
2023/10/13 07:29:09;;;;;;;3.50;0.20;;;;;;;6.36;70.08;100572.53;5034289;28;20046;-78
2023/10/13 07:31:37;;;;;;;7.40;0.40;;;;;;;6.47;70.08;100578.53;5029914;28;20053;-78
2023/10/13 07:34:12;;;;;;;5.20;0.52;;;;;;;6.53;70.10;100575.91;5034700;28;20081;-78
2023/10/13 07:36:43;;;;;;;15.50;1.58;;;;;;;6.61;70.04;100577.59;5033130;28;20091;-78
2023/10/13 07:39:21;;;;;;;5.82;0.50;;;;;;;6.71;70.52;100579.25;5040115;28;20049;-78
2023/10/13 07:42:03;;;;;;;9.10;0.30;;;;;;;6.81;70.43;100586.13;5037922;28;20055;-80
2023/10/13 07:44:33;;;;;;;5.57;0.30;;;;;;;6.89;70.42;100578.31;5035468;28;20099;-78
2023/10/13 07:47:02;;;;;;;4.25;0.40;;;;;;;6.93;70.56;100574.81;5038844;28;20052;-81
2023/10/13 07:49:36;;;;;;;4.15;0.38;;;;;;;7.02;70.26;100574.72;5034503;28;20443;-76
2023/10/13 07:52:14;;;;;;;4.55;0.32;;;;;;;7.10;70.35;100572.09;5026409;28;20092;-78
2023/10/13 07:54:59;;;;;;;4.13;0.50;;;;;;;7.21;70.51;100571.13;5033940;28;20061;-83
2023/10/13 07:57:30;;;;;;;1.95;0.20;;;;;;;7.28;70.88;100566.72;5030177;28;20715;-77
2023/10/13 08:00:10;;;;;;;10.68;3.10;;;;;;;7.38;70.45;100562.34;5038550;28;20433;-77
2023/10/13 08:02:51;;;;;;;7.78;1.05;;;;;;;7.45;70.72;100556.19;5033530;28;20045;-76
2023/10/13 08:05:25;;;;;;;4.22;0.57;;;;;;;7.53;70.70;100566.53;5035571;28;20041;-76
2023/10/13 08:07:55;;;;;;;8.20;0.35;;;;;;;7.60;70.46;100570.81;5035659;28;20330;-78
2023/10/13 08:10:29;;;;;;;14.18;3.53;;;;;;;7.65;70.21;100564.66;5034916;28;20057;-76
2023/10/13 08:12:58;;;;;;;4.60;0.68;;;;;;;7.73;70.47;100575.00;5038110;28;20057;-75
2023/10/13 08:15:33;;;;;;;5.38;1.25;;;;;;;7.80;70.50;100581.88;5031718;28;20061;-76
2023/10/13 08:18:04;;;;;;;5.18;0.20;;;;;;;7.83;70.48;100578.38;5038157;28;20095;-78
2023/10/13 08:20:38;;;;;;;4.40;0.45;;;;;;;7.93;70.34;100577.38;5038488;28;20057;-76
2023/10/13 08:23:14;;;;;;;6.35;0.30;;;;;;;7.99;70.32;100576.44;5025913;28;20041;-79
2023/10/13 08:31:21;;;;;;;5.75;0.50;;;;;;;8.18;69.88;100562.34;5038822;28;20197;-78
2023/10/13 08:33:49;;;;;;;3.58;0.40;;;;;;;8.25;70.17;100556.22;5034632;28;20053;-77
2023/10/13 08:36:29;;;;;;;3.97;0.35;;;;;;;8.23;70.11;100544.97;5017683;28;20049;-79
2023/10/13 08:38:56;;;;;;;3.40;0.77;;;;;;;8.34;69.90;100548.28;5032544;28;20484;-76
2023/10/13 08:41:29;;;;;;;6.18;1.58;;;;;;;8.44;70.01;100553.41;5028777;28;20051;-77
2023/10/13 08:44:04;;;;;;;6.70;0.40;;;;;;;8.49;70.08;100562.88;5025481;28;20049;-78
2023/10/13 08:46:51;;;;;;;10.20;0.77;;;;;;;8.54;70.18;100558.47;5035450;28;20204;-78
2023/10/13 08:49:23;;;;;;;4.20;0.20;;;;;;;8.60;69.63;100549.72;5032390;28;20102;-75
2023/10/13 08:52:05;;;;;;;18.77;4.18;;;;;;;8.65;69.45;100550.50;5030654;28;20044;-74
2023/10/13 08:54:45;;;;;;;11.57;1.83;;;;;;;8.67;69.73;100548.72;5031770;28;20547;-75
2023/10/13 08:57:34;;;;;;;8.82;1.88;;;;;;;8.75;69.60;100554.69;5028154;28;20060;-75
2023/10/13 09:03:28;;;;;;;7.25;0.50;;;;;;;8.86;69.26;100551.06;5022375;28;20131;-75
2023/10/13 09:06:06;;;;;;;16.27;0.50;;;;;;;8.93;69.28;100557.91;5024500;28;20041;-75
2023/10/13 09:08:44;;;;;;;5.72;0.50;;;;;;;8.97;68.99;100557.84;5032994;28;20050;-77
2023/10/13 09:11:13;;;;;;;3.30;0.20;;;;;;;9.01;68.98;100562.09;5030422;28;20053;-76
2023/10/13 09:13:46;;;;;;;3.92;0.38;;;;;;;9.08;69.45;100564.63;5032416;28;20057;-75
2023/10/13 09:16:22;;;;;;;6.65;0.40;;;;;;;9.13;69.31;100557.59;5031799;28;20056;-74
2023/10/13 09:18:52;;;;;;;5.22;0.32;;;;;;;9.17;68.85;100560.13;5030131;28;20046;-74
2023/10/13 09:24:21;;;;;;;4.35;1.67;;;;;;;9.28;68.79;100552.16;4971842;28;20089;-72
2023/10/13 09:26:49;;;;;;;7.75;1.25;;;;;;;9.34;68.53;100559.00;4979800;28;20045;-75
2023/10/13 09:29:18;;;;;;;10.30;0.70;;;;;;;9.39;68.08;100552.81;4988252;28;20049;-74
2023/10/13 09:31:48;;;;;;;8.23;0.60;;;;;;;9.44;68.46;100552.72;5031721;28;20135;-73
2023/10/13 09:34:23;;;;;;;4.38;0.50;;;;;;;9.49;68.26;100543.09;5028296;28;20647;-73
2023/10/13 09:36:55;;;;;;;5.82;0.40;;;;;;;9.54;67.72;100532.59;5033617;28;20699;-73
2023/10/13 09:39:35;;;;;;;8.65;0.40;;;;;;;9.60;67.65;100540.28;5019739;28;20407;-74
2023/10/13 09:42:10;;;;;;;6.35;0.40;;;;;;;9.62;67.45;100536.78;5028410;28;20057;-73
2023/10/13 09:44:40;;;;;;;2.88;0.30;;;;;;;9.68;67.42;100534.03;5029904;28;20052;-73
2023/10/13 09:47:17;;;;;;;8.48;0.80;;;;;;;9.76;67.09;100540.84;5030756;28;20052;-77
2023/10/13 09:49:44;;;;;;;9.77;0.60;;;;;;;9.80;67.25;100532.09;5034794;28;21107;-75
2023/10/13 09:52:19;;;;;;;1.55;0.28;;;;;;;9.84;66.72;100531.13;5034043;28;20136;-75
2023/10/13 09:54:59;;;;;;;8.77;0.57;;;;;;;9.87;66.84;100533.69;5028038;28;20072;-77
2023/10/13 09:57:34;;;;;;;7.15;1.10;;;;;;;9.89;66.64;100518.88;5029599;28;20049;-75
2023/10/13 10:00:15;;;;;;;8.98;0.52;;;;;;;9.96;66.85;100516.97;5030036;28;20060;-75
2023/10/13 10:02:44;;;;;;;7.40;1.00;;;;;;;10.00;66.99;100506.47;5030730;28;20045;-75
2023/10/13 10:05:20;;;;;;;10.52;0.95;;;;;;;10.04;66.82;100509.88;5034707;28;20064;-76
2023/10/13 10:07:55;;;;;;;8.93;0.60;;;;;;;10.05;66.48;100502.03;5026128;28;20515;-75
2023/10/13 10:10:22;;;;;;;6.20;0.40;;;;;;;10.10;65.99;100489.75;5032907;28;20103;-74
2023/10/13 10:12:55;;;;;;;7.15;0.57;;;;;;;10.15;66.21;100494.84;5026779;28;20061;-74
2023/10/13 10:15:30;;;;;;;5.97;0.80;;;;;;;10.18;65.92;100491.31;5034901;28;20053;-73
2023/10/13 10:18:00;;;;;;;7.15;0.50;;;;;;;10.23;65.54;100490.31;5028938;28;20049;-74
2023/10/13 10:20:39;;;;;;;7.60;0.40;;;;;;;10.27;65.76;100483.31;5026496;28;20068;-73
2023/10/13 10:23:09;;;;;;;12.73;1.08;;;;;;;10.31;65.73;100482.38;5020746;28;20045;-73
2023/10/13 10:25:37;;;;;;;6.85;2.10;;;;;;;10.34;65.58;100482.28;5028219;28;20632;-74
2023/10/13 10:28:06;;;;;;;7.78;0.55;;;;;;;10.37;65.22;100487.44;5030740;28;20085;-73
2023/10/13 10:30:35;;;;;;;8.02;0.98;;;;;;;10.40;64.97;100482.16;5030706;28;20053;-74
2023/10/13 10:33:11;;;;;;;2.38;0.30;;;;;;;10.44;64.80;100477.72;5030997;28;20063;-74
2023/10/13 10:35:42;;;;;;;7.35;0.40;;;;;;;10.42;64.76;100464.72;5027299;28;20355;-74
2023/10/13 10:38:23;;;;;;;6.97;0.70;;;;;;;10.47;64.49;100456.75;5024127;28;20049;-74
2023/10/13 10:40:52;;;;;;;3.17;0.40;;;;;;;10.50;64.43;100468.00;5019650;28;20072;-75
2023/10/13 10:43:20;;;;;;;14.25;1.02;;;;;;;10.52;64.15;100463.59;5032813;28;20061;-74
2023/10/13 10:45:50;;;;;;;3.25;0.57;;;;;;;10.55;64.18;100455.66;5028288;28;20602;-75
2023/10/13 10:48:18;;;;;;;15.00;1.05;;;;;;;10.55;64.07;100444.38;5028962;28;20056;-75
2023/10/13 10:50:53;;;;;;;11.00;0.80;;;;;;;10.60;63.95;100460.81;5032933;28;20052;-75
2023/10/13 10:53:22;;;;;;;5.63;1.42;;;;;;;10.63;63.64;100452.03;5033986;28;20068;-74
2023/10/13 10:55:49;;;;;;;6.88;0.40;;;;;;;10.65;63.44;100450.25;5035545;28;20099;-74
2023/10/13 10:58:28;;;;;;;7.30;0.50;;;;;;;10.64;63.39;100440.69;5021760;28;21136;-75
2023/10/13 11:01:10;;;;;;;16.35;0.90;;;;;;;10.70;63.18;100440.53;5029831;28;20041;-74
2023/10/13 11:03:41;;;;;;;7.68;0.50;;;;;;;10.70;63.37;100433.59;5032529;28;20049;-77
2023/10/13 11:06:19;;;;;;;7.85;1.33;;;;;;;10.72;63.17;100429.16;5025029;28;21826;-74
2023/10/13 11:08:51;;;;;;;6.05;0.73;;;;;;;10.73;63.01;100428.28;5034495;28;20068;-75
2023/10/13 11:11:30;;;;;;;6.68;0.45;;;;;;;10.75;63.11;100416.00;5029381;28;20116;-76
2023/10/13 11:14:13;;;;;;;10.38;0.70;;;;;;;10.78;63.57;100420.31;5039358;28;20048;-77
2023/10/13 11:16:50;;;;;;;11.82;0.90;;;;;;;10.80;63.48;100413.28;5035338;28;20049;-77
2023/10/13 11:19:25;;;;;;;6.32;0.73;;;;;;;10.80;63.26;100410.69;5038578;28;20041;-84
2023/10/13 11:21:54;;;;;;;7.15;0.52;;;;;;;10.80;62.57;100397.63;5040726;28;20077;-85
2023/10/13 11:24:21;;;;;;;7.60;0.70;;;;;;;10.76;62.86;100385.53;5026746;28;20041;-81
2023/10/13 11:26:54;;;;;;;9.40;0.47;;;;;;;10.83;63.42;100392.31;5035317;28;20052;-84
2023/10/13 11:29:33;;;;;;;7.57;0.40;;;;;;;10.88;62.85;100400.91;5037853;28;20049;-80
2023/10/13 11:32:02;;;;;;;11.02;0.60;;;;;;;10.88;62.76;100382.59;5037468;28;20040;-83
2023/10/13 11:34:39;;;;;;;7.57;0.55;;;;;;;10.89;62.79;100379.09;5038644;28;20076;-82
2023/10/13 11:39:47;;;;;;;9.65;0.60;;;;;;;10.93;62.59;100377.25;5037726;28;20132;-86
2023/10/13 11:42:17;;;;;;;8.73;0.65;;;;;;;10.93;62.37;100372.91;5035814;28;20133;-85
2023/10/13 11:44:44;;;;;;;4.18;0.50;;;;;;;10.93;62.78;100372.00;5044683;28;20059;-80
2023/10/13 11:49:57;;;;;;;9.80;0.63;;;;;;;10.96;62.52;100364.97;5039985;28;20041;-89
2023/10/13 11:52:26;;;;;;;10.20;1.10;;;;;;;10.99;62.37;100366.66;5033521;28;20053;-86
2023/10/13 11:54:53;;;;;;;9.07;1.20;;;;;;;11.00;62.31;100357.91;5041745;28;20092;-85
2023/10/13 11:57:21;;;;;;;9.10;1.60;;;;;;;11.01;62.65;100363.09;5044079;28;20458;-84
2023/10/13 11:59:56;;;;;;;13.65;0.80;;;;;;;11.02;62.40;100351.72;5031764;28;20055;-82
2023/10/13 12:05:17;;;;;;;10.88;1.10;;;;;;;11.04;62.24;100341.22;5029372;28;20175;-83
2023/10/13 12:07:48;;;;;;;8.07;0.50;;;;;;;11.06;61.98;100346.41;5038245;28;20063;-83
2023/10/13 12:10:33;;;;;;;6.78;1.10;;;;;;;11.01;61.71;100329.13;5036238;28;20045;-84
2023/10/13 12:13:05;;;;;;;9.60;0.50;;;;;;;11.07;61.98;100327.22;5042016;28;20493;-81
2023/10/13 12:15:48;;;;;;;11.90;0.50;;;;;;;11.08;62.01;100323.72;5037678;28;20099;-79
2023/10/13 12:18:15;;;;;;;10.70;1.85;;;;;;;11.09;61.64;100325.44;5040627;28;20048;-74
2023/10/13 12:20:46;;;;;;;12.32;1.02;;;;;;;11.09;61.56;100317.59;5028923;28;20063;-75
2023/10/13 12:23:29;;;;;;;8.38;0.65;;;;;;;11.08;61.74;100297.59;5031960;28;20137;-75
2023/10/13 12:26:00;;;;;;;14.30;1.20;;;;;;;11.10;61.42;100301.00;5021764;28;20044;-75
2023/10/13 12:28:28;;;;;;;12.13;0.60;;;;;;;11.11;61.81;100297.50;5034541;28;20049;-71
2023/10/13 12:30:57;;;;;;;11.02;0.55;;;;;;;11.13;61.51;100293.09;5028359;28;20136;-73
2023/10/13 12:33:26;;;;;;;9.52;0.93;;;;;;;11.13;61.36;100293.09;5034958;28;20041;-73
2023/10/13 12:36:06;;;;;;;13.45;1.02;;;;;;;11.13;61.28;100278.25;5027511;28;20065;-74
2023/10/13 12:48:55;;;;;;;11.38;1.00;;;;;;;11.14;61.20;100279.97;5030320;28;20829;-71
2023/10/13 12:50:14;;;;;;;21.10;0.70;;;;;;;11.16;61.42;100262.47;5029647;28;20075;-74
2023/10/13 12:52:45;;;;;;;15.45;0.50;;;;;;;11.16;61.38;100249.41;5030230;28;20401;-74
2023/10/13 12:55:13;;;;;;;12.07;0.60;;;;;;;11.17;61.36;100229.34;5023397;28;20072;-75
2023/10/13 12:57:49;;;;;;;11.38;1.00;;;;;;;11.17;61.39;100229.34;5020416;28;20107;-75
2023/10/13 13:00:25;;;;;;;16.92;2.80;;;;;;;11.19;61.18;100223.19;5033608;28;20059;-75
2023/10/13 13:02:55;;;;;;;24.52;1.55;;;;;;;11.18;61.38;100212.75;5028395;28;20446;-74
2023/10/13 13:05:28;;;;;;;13.02;1.00;;;;;;;11.18;61.39;100208.38;5035252;28;20041;-74
2023/10/13 13:07:56;;;;;;;13.77;0.60;;;;;;;11.19;61.54;100202.25;5034007;28;20045;-73
2023/10/13 13:10:38;;;;;;;13.95;1.02;;;;;;;11.20;61.41;100192.66;5021640;28;20057;-75
2023/10/13 13:13:06;;;;;;;13.15;1.33;;;;;;;11.20;61.80;100190.03;5033391;28;20046;-77
2023/10/13 13:15:32;;;;;;;22.20;2.03;;;;;;;11.21;61.57;100178.66;5035931;28;20044;-76
2023/10/13 13:18:09;;;;;;;11.63;0.90;;;;;;;11.22;61.71;100169.94;5035335;28;20480;-76
2023/10/13 13:20:39;;;;;;;10.80;0.60;;;;;;;11.22;61.94;100169.94;5034053;28;20051;-78
2023/10/13 13:23:07;;;;;;;11.85;1.00;;;;;;;11.22;61.88;100164.72;5035729;28;20047;-81
2023/10/13 13:25:42;;;;;;;15.20;1.10;;;;;;;11.23;62.18;100156.81;5038391;28;20049;-77
2023/10/13 13:28:10;;;;;;;19.48;1.20;;;;;;;11.24;62.10;100155.03;5039804;28;20045;-75
2023/10/13 13:30:37;;;;;;;10.45;1.17;;;;;;;11.24;62.32;100152.44;5027387;28;20703;-75
2023/10/13 13:33:09;;;;;;;8.65;0.98;;;;;;;11.25;62.11;100143.69;5015706;28;20048;-75
2023/10/13 13:35:36;;;;;;;15.23;1.40;;;;;;;11.24;62.31;100135.00;5031126;28;20487;-74
2023/10/13 13:38:09;;;;;;;13.40;1.15;;;;;;;11.23;62.29;100132.44;5020329;28;20045;-73
2023/10/13 13:40:38;;;;;;;14.63;1.10;;;;;;;11.23;62.63;100124.59;5031879;28;20090;-76
2023/10/13 13:43:06;;;;;;;11.70;0.75;;;;;;;11.22;62.29;100123.72;5035955;28;20057;-77
2023/10/13 13:45:34;;;;;;;19.17;1.45;;;;;;;11.22;62.48;100115.03;5033388;28;20136;-75
2023/10/13 13:48:07;;;;;;;14.57;0.70;;;;;;;11.19;62.53;100107.31;5031270;28;20072;-76
2023/10/13 13:50:41;;;;;;;12.75;0.80;;;;;;;11.18;62.26;100106.41;5039038;28;20053;-76
2023/10/13 13:53:09;;;;;;;12.23;2.67;;;;;;;11.13;62.53;100090.06;5031964;28;20053;-75
2023/10/13 13:55:39;;;;;;;15.85;2.20;;;;;;;11.15;62.48;100096.06;5036294;28;20422;-78
2023/10/13 13:58:09;;;;;;;13.93;1.02;;;;;;;11.14;62.57;100080.44;5032407;28;20049;-77
2023/10/13 14:00:38;;;;;;;12.88;0.82;;;;;;;11.15;61.95;100084.75;5034250;28;20060;-74
2023/10/13 14:03:12;;;;;;;14.38;0.73;;;;;;;11.10;62.57;100071.84;5031444;28;20630;-76
2023/10/13 14:05:42;;;;;;;11.15;1.48;;;;;;;11.13;62.33;100070.91;5028082;28;20522;-75